Time;durP1;ratioP1;P1;durP2;ratioP2;P2;SDS_P1;SDS_P2;PMS_P1;PMS_P2;Temp;Humidity;BMP_temperature;BMP_pressure;BME280_temperature;BME280_humidity;BME280_pressure;Samples;Min_cycle;Max_cycle;Signal;HPM_P1;HPM_P2
2021/08/05 00:02:12;;;;;;;36.08;32.58;;;16.70;89.10;;;;;;4998121;28;20030;-73
2021/08/05 00:04:38;;;;;;;35.00;31.70;;;16.70;89.20;;;;;;5001846;28;20473;-72
2021/08/05 00:07:05;;;;;;;34.85;31.63;;;16.70;89.40;;;;;;5017574;28;20046;-76
2021/08/05 00:09:31;;;;;;;32.67;29.52;;;16.70;89.50;;;;;;5000458;28;20045;-74
2021/08/05 00:11:57;;;;;;;35.22;31.75;;;16.70;89.60;;;;;;5001684;28;20065;-72
2021/08/05 00:14:23;;;;;;;33.30;30.17;;;16.70;89.50;;;;;;4993737;28;20493;-71
2021/08/05 00:16:48;;;;;;;34.08;30.88;;;16.60;89.60;;;;;;4992149;28;20045;-72
2021/08/05 00:19:14;;;;;;;37.10;33.50;;;16.60;89.70;;;;;;4996203;28;20038;-72
2021/08/05 00:21:40;;;;;;;36.35;32.95;;;16.60;89.70;;;;;;4998793;28;20044;-72
2021/08/05 00:24:06;;;;;;;38.28;34.70;;;16.70;89.70;;;;;;4999163;28;20084;-76
2021/08/05 00:26:32;;;;;;;33.72;30.42;;;16.70;89.70;;;;;;5029482;28;20106;-71
2021/08/05 00:28:57;;;;;;;38.25;34.47;;;16.70;89.50;;;;;;5024236;28;20041;-72
2021/08/05 00:31:23;;;;;;;36.05;32.55;;;16.70;89.60;;;;;;5021471;28;20087;-72
2021/08/05 00:33:49;;;;;;;35.47;31.80;;;16.70;89.40;;;;;;5023766;28;20409;-72
2021/08/05 00:36:15;;;;;;;37.60;33.80;;;16.70;89.30;;;;;;5021079;28;20129;-76
2021/08/05 00:38:40;;;;;;;34.70;31.40;;;16.70;89.20;;;;;;5026584;28;20527;-76
2021/08/05 00:41:06;;;;;;;35.50;32.10;;;16.70;89.20;;;;;;5022522;28;20465;-72
2021/08/05 00:43:34;;;;;;;32.63;29.23;;;16.70;89.20;;;;;;5025857;28;20374;-73
2021/08/05 00:46:00;;;;;;;36.10;32.45;;;16.70;89.00;;;;;;5026075;28;20032;-72
2021/08/05 00:48:26;;;;;;;32.67;29.58;;;16.70;89.00;;;;;;5023309;28;20116;-71
2021/08/05 00:50:52;;;;;;;31.38;28.40;;;16.70;88.90;;;;;;5028782;28;20763;-72
2021/08/05 00:53:18;;;;;;;33.13;29.77;;;16.70;89.00;;;;;;5021516;28;20025;-71
2021/08/05 00:55:47;;;;;;;32.03;28.90;;;16.70;89.10;;;;;;5026424;28;20041;-73
2021/08/05 00:58:12;;;;;;;32.05;28.95;;;16.70;89.10;;;;;;5027091;28;20124;-73
2021/08/05 01:00:42;;;;;;;31.85;28.75;;;16.70;89.00;;;;;;5023385;28;20425;-75
2021/08/05 01:03:20;;;;;;;31.02;27.92;;;16.60;88.80;;;;;;5028705;28;20037;-73
2021/08/05 01:05:52;;;;;;;31.65;28.45;;;16.60;88.80;;;;;;5028225;28;20096;-71
2021/08/05 01:08:24;;;;;;;31.00;28.00;;;16.60;88.80;;;;;;5030065;28;20034;-72
2021/08/05 01:10:59;;;;;;;31.85;28.75;;;16.60;88.80;;;;;;5026544;28;20124;-74
2021/08/05 01:13:33;;;;;;;;;;;16.60;89.00;;;;;;5032313;28;20037;-72
2021/08/05 01:16:00;;;;;;;30.83;27.80;;;16.60;89.00;;;;;;5022342;28;19932;-72
2021/08/05 01:18:31;;;;;;;28.05;25.27;;;16.60;88.80;;;;;;5020462;28;20036;-73
2021/08/05 01:21:04;;;;;;;28.38;25.50;;;16.60;88.90;;;;;;5026465;28;20479;-75
2021/08/05 01:23:39;;;;;;;28.63;25.90;;;16.60;88.80;;;;;;5022465;28;20049;-73
2021/08/05 01:26:16;;;;;;;30.92;27.83;;;16.60;88.80;;;;;;5023255;28;20124;-77
2021/08/05 01:28:44;;;;;;;31.63;28.63;;;16.60;88.80;;;;;;5017511;28;20327;-73
2021/08/05 01:31:11;;;;;;;31.52;28.38;;;16.60;88.90;;;;;;5021296;28;20040;-74
2021/08/05 01:33:38;;;;;;;30.13;27.23;;;16.60;88.90;;;;;;5027182;28;20550;-73
2021/08/05 01:36:05;;;;;;;33.33;30.17;;;16.60;88.90;;;;;;5026997;28;20404;-74
2021/08/05 01:38:33;;;;;;;32.53;29.33;;;16.60;89.00;;;;;;5026771;28;20068;-73
2021/08/05 01:41:01;;;;;;;31.60;28.52;;;16.60;89.00;;;;;;5024438;28;20125;-73
2021/08/05 01:43:27;;;;;;;31.45;28.15;;;16.60;89.00;;;;;;5030731;28;20041;-73
2021/08/05 01:45:53;;;;;;;32.60;29.30;;;16.50;89.10;;;;;;5028407;28;20389;-72
2021/08/05 01:48:20;;;;;;;33.58;30.35;;;16.50;89.20;;;;;;5025022;28;20037;-72
2021/08/05 01:50:47;;;;;;;32.90;29.77;;;16.50;89.20;;;;;;5027357;28;20033;-73
2021/08/05 01:53:17;;;;;;;32.55;29.35;;;16.50;89.20;;;;;;5027354;28;20048;-73
2021/08/05 01:55:43;;;;;;;31.85;28.65;;;16.50;89.30;;;;;;5013073;28;20081;-73
2021/08/05 01:58:09;;;;;;;31.95;28.75;;;16.40;89.30;;;;;;5006811;28;20042;-72
2021/08/05 02:00:35;;;;;;;33.55;30.25;;;16.40;89.40;;;;;;5005317;28;20048;-73
2021/08/05 02:03:03;;;;;;;31.17;28.10;;;16.40;89.60;;;;;;5000378;28;20038;-73
2021/08/05 02:05:41;;;;;;;32.80;29.50;;;16.40;89.70;;;;;;5006514;28;20070;-74
2021/08/05 02:08:12;;;;;;;31.67;28.45;;;16.30;89.60;;;;;;5005667;28;20049;-74
2021/08/05 02:10:41;;;;;;;30.60;27.48;;;16.30;89.50;;;;;;5002495;28;20069;-74
2021/08/05 02:13:20;;;;;;;31.98;28.85;;;16.30;89.50;;;;;;5001949;28;20034;-76
2021/08/05 02:15:53;;;;;;;32.33;28.48;;;16.30;89.50;;;;;;4999915;28;20050;-74
2021/08/05 02:18:20;;;;;;;33.30;30.10;;;16.20;89.50;;;;;;5005637;28;20087;-74
2021/08/05 02:20:47;;;;;;;31.17;28.05;;;16.20;89.60;;;;;;5007943;28;20113;-74
2021/08/05 02:23:14;;;;;;;31.48;28.27;;;16.10;89.60;;;;;;4996922;28;20058;-72
2021/08/05 02:25:41;;;;;;;32.03;28.92;;;16.10;89.70;;;;;;4998439;28;20049;-74
2021/08/05 02:28:08;;;;;;;32.28;29.15;;;16.10;89.70;;;;;;5020991;28;20032;-75
2021/08/05 02:30:36;;;;;;;33.05;29.65;;;16.00;89.80;;;;;;5013851;28;20030;-73
2021/08/05 02:33:02;;;;;;;32.50;29.27;;;16.00;89.80;;;;;;5008109;28;20038;-74
2021/08/05 02:35:28;;;;;;;32.80;29.55;;;15.90;89.90;;;;;;5005446;28;20073;-73
2021/08/05 02:37:54;;;;;;;33.60;30.17;;;15.90;90.00;;;;;;5006215;28;20050;-73
2021/08/05 02:40:20;;;;;;;33.25;30.05;;;15.80;90.20;;;;;;5005097;28;20030;-73
2021/08/05 02:42:47;;;;;;;33.25;29.80;;;15.80;90.10;;;;;;5002035;28;20118;-78
2021/08/05 02:45:14;;;;;;;36.20;32.38;;;15.80;90.20;;;;;;5013442;28;20540;-74
2021/08/05 02:47:40;;;;;;;34.15;30.70;;;15.80;90.40;;;;;;5003968;28;20061;-73
2021/08/05 02:50:08;;;;;;;35.80;32.20;;;15.80;90.40;;;;;;4997779;28;20512;-72
2021/08/05 02:52:35;;;;;;;35.60;32.13;;;15.70;90.50;;;;;;5005839;28;20124;-77
2021/08/05 02:55:04;;;;;;;36.00;32.40;;;15.70;90.50;;;;;;5009120;28;20115;-75
2021/08/05 02:57:30;;;;;;;40.45;36.50;;;15.60;90.60;;;;;;5025842;28;20056;-74
2021/08/05 02:59:57;;;;;;;41.50;37.20;;;15.60;90.70;;;;;;5028894;28;20053;-74
2021/08/05 03:02:22;;;;;;;34.58;31.08;;;15.60;90.90;;;;;;5025238;28;20088;-72
2021/08/05 03:04:49;;;;;;;35.70;32.20;;;15.50;90.90;;;;;;5028633;28;20041;-72
2021/08/05 03:07:15;;;;;;;34.80;31.35;;;15.50;91.00;;;;;;5024899;28;20561;-73
2021/08/05 03:09:40;;;;;;;33.83;30.55;;;15.50;90.90;;;;;;5033103;28;20385;-73
2021/08/05 03:12:07;;;;;;;34.67;31.30;;;15.50;91.00;;;;;;5023573;28;20038;-74
2021/08/05 03:14:33;;;;;;;35.00;31.60;;;15.50;91.00;;;;;;5025936;28;20483;-74
2021/08/05 03:16:59;;;;;;;34.13;30.73;;;15.40;91.00;;;;;;5026891;28;20066;-75
2021/08/05 03:19:25;;;;;;;34.30;30.88;;;15.40;90.90;;;;;;5020993;28;20057;-73
2021/08/05 03:21:51;;;;;;;36.28;32.55;;;15.30;90.80;;;;;;5024884;28;20068;-76
2021/08/05 03:24:16;;;;;;;34.13;30.70;;;15.30;90.80;;;;;;5024002;28;20050;-73
2021/08/05 03:26:42;;;;;;;34.88;31.50;;;15.30;90.80;;;;;;5026065;28;20136;-73
2021/08/05 03:29:08;;;;;;;35.28;31.67;;;15.30;90.90;;;;;;5022490;28;20069;-74
2021/08/05 03:31:33;;;;;;;35.67;32.13;;;15.30;90.90;;;;;;5006595;28;20040;-72
2021/08/05 03:33:59;;;;;;;34.35;31.00;;;15.30;90.90;;;;;;5004392;28;20038;-76
2021/08/05 03:36:25;;;;;;;34.63;31.33;;;15.30;90.80;;;;;;5002417;28;20081;-72
2021/08/05 03:38:50;;;;;;;33.72;30.52;;;15.30;90.90;;;;;;4992877;28;20030;-72
2021/08/05 03:41:16;;;;;;;31.35;28.30;;;15.20;90.90;;;;;;4992905;28;20403;-72
2021/08/05 03:43:42;;;;;;;30.63;27.63;;;15.20;90.90;;;;;;5000384;28;20036;-73
2021/08/05 03:46:08;;;;;;;32.30;28.98;;;15.20;90.90;;;;;;5000263;28;20511;-76
2021/08/05 03:48:33;;;;;;;31.92;28.70;;;15.10;90.80;;;;;;4996573;28;20034;-73
2021/08/05 03:50:59;;;;;;;30.13;27.13;;;15.10;90.90;;;;;;5005123;28;20084;-72
2021/08/05 03:53:25;;;;;;;31.70;28.33;;;15.10;90.80;;;;;;5017289;28;20121;-72
2021/08/05 03:55:51;;;;;;;30.85;27.75;;;15.10;90.80;;;;;;4996159;28;20061;-73
2021/08/05 03:58:18;;;;;;;31.52;28.38;;;15.00;90.90;;;;;;4998047;28;20482;-76
2021/08/05 04:00:44;;;;;;;30.33;27.02;;;15.00;90.80;;;;;;4996795;28;20030;-73
2021/08/05 04:03:09;;;;;;;29.02;26.23;;;15.00;90.80;;;;;;4997557;28;20034;-71
2021/08/05 04:05:35;;;;;;;30.52;27.50;;;15.00;90.80;;;;;;5000533;28;20544;-73
2021/08/05 04:08:01;;;;;;;29.58;26.58;;;15.00;90.80;;;;;;5021401;28;20081;-71
2021/08/05 04:10:27;;;;;;;28.80;25.92;;;14.90;90.80;;;;;;5021505;28;20068;-75
2021/08/05 04:12:52;;;;;;;97.63;28.73;;;14.90;90.80;;;;;;5020460;28;20084;-72
2021/08/05 04:15:18;;;;;;;33.55;26.38;;;14.80;90.50;;;;;;5013493;28;20096;-75
2021/08/05 04:17:44;;;;;;;29.20;26.00;;;14.70;90.60;;;;;;5020845;28;20041;-72
2021/08/05 04:20:10;;;;;;;28.70;25.80;;;14.60;90.70;;;;;;5024857;28;20034;-74
2021/08/05 04:22:36;;;;;;;27.63;25.02;;;14.60;90.80;;;;;;5025640;28;20108;-73
2021/08/05 04:25:04;;;;;;;25.95;23.45;;;14.60;90.80;;;;;;5029407;28;20136;-72
2021/08/05 04:27:30;;;;;;;29.50;26.60;;;14.60;90.90;;;;;;5024024;28;20536;-73
2021/08/05 04:29:55;;;;;;;28.63;25.63;;;14.60;91.00;;;;;;5026084;28;20112;-71
2021/08/05 04:32:21;;;;;;;29.30;26.45;;;14.60;90.90;;;;;;5024187;28;20038;-72
2021/08/05 04:34:48;;;;;;;26.98;24.02;;;14.60;91.00;;;;;;5022761;28;20049;-72
2021/08/05 04:37:14;;;;;;;24.80;22.50;;;14.60;90.80;;;;;;5024028;28;20566;-74
2021/08/05 04:39:40;;;;;;;28.50;25.13;;;14.60;90.80;;;;;;5025769;28;20065;-73
2021/08/05 04:42:06;;;;;;;25.45;23.00;;;14.60;90.80;;;;;;5019912;28;20084;-72
2021/08/05 04:44:32;;;;;;;24.80;22.40;;;14.60;90.90;;;;;;5024715;28;20041;-73
2021/08/05 04:46:58;;;;;;;22.98;20.77;;;14.60;90.70;;;;;;5025440;28;20107;-71
2021/08/05 04:49:24;;;;;;;24.85;22.45;;;14.70;90.60;;;;;;5030130;28;20029;-72
2021/08/05 04:51:53;;;;;;;38.63;23.20;;;14.80;90.50;;;;;;5027061;28;20045;-73
2021/08/05 04:54:20;;;;;;;23.63;21.42;;;14.80;90.20;;;;;;5029218;28;20339;-72
2021/08/05 04:56:46;;;;;;;22.85;20.65;;;14.80;90.30;;;;;;5025152;28;20033;-72
2021/08/05 04:59:11;;;;;;;23.83;21.50;;;14.90;90.10;;;;;;5028916;28;20037;-73
2021/08/05 05:01:37;;;;;;;23.35;21.05;;;15.00;90.00;;;;;;5025942;28;20129;-73
2021/08/05 05:04:03;;;;;;;22.30;20.20;;;15.10;89.90;;;;;;5019405;28;20124;-72
2021/08/05 05:06:29;;;;;;;22.70;20.45;;;15.10;89.80;;;;;;5026414;28;20504;-73
2021/08/05 05:08:55;;;;;;;21.27;19.38;;;15.20;89.40;;;;;;5027343;28;20120;-72
2021/08/05 05:11:21;;;;;;;21.50;19.30;;;15.30;89.20;;;;;;5028378;28;20124;-72
2021/08/05 05:13:47;;;;;;;19.40;17.40;;;15.40;88.90;;;;;;5037285;28;20045;-72
2021/08/05 05:16:12;;;;;;;18.83;17.13;;;15.40;88.90;;;;;;5022046;28;20042;-75
2021/08/05 05:18:38;;;;;;;21.00;19.10;;;15.50;88.70;;;;;;5024577;28;20033;-72
2021/08/05 05:21:04;;;;;;;21.42;19.33;;;15.50;88.20;;;;;;5032869;28;20047;-72
2021/08/05 05:23:31;;;;;;;18.95;17.15;;;15.60;87.80;;;;;;5032256;28;20049;-75
2021/08/05 05:25:57;;;;;;;21.27;19.17;;;15.70;87.80;;;;;;5030863;28;20034;-73
2021/08/05 05:28:23;;;;;;;20.15;18.25;;;15.90;87.50;;;;;;5028695;28;20091;-72
2021/08/05 05:30:49;;;;;;;23.85;19.23;;;16.20;86.90;;;;;;5021534;28;20105;-76
2021/08/05 05:33:15;;;;;;;19.05;17.15;;;16.30;85.60;;;;;;5028073;28;20036;-72
2021/08/05 05:35:41;;;;;;;21.38;19.20;;;16.30;85.80;;;;;;5023300;28;20472;-73
2021/08/05 05:38:08;;;;;;;20.27;18.38;;;16.40;85.70;;;;;;5030079;28;20037;-72
2021/08/05 05:40:34;;;;;;;22.88;20.77;;;16.40;85.50;;;;;;5001794;28;20022;-69
2021/08/05 05:43:00;;;;;;;21.63;19.50;;;16.50;85.80;;;;;;4997384;28;20100;-69
2021/08/05 05:45:27;;;;;;;25.25;22.85;;;16.60;85.70;;;;;;5026889;28;20037;-70
2021/08/05 05:47:53;;;;;;;23.58;21.30;;;16.60;85.50;;;;;;5024945;28;20113;-70
2021/08/05 05:50:20;;;;;;;24.95;22.55;;;16.60;85.80;;;;;;5026752;28;20037;-70
2021/08/05 05:52:47;;;;;;;25.70;23.10;;;16.60;85.80;;;;;;5024614;28;20026;-70
2021/08/05 05:55:13;;;;;;;25.05;22.70;;;16.70;85.80;;;;;;5031273;28;20054;-70
2021/08/05 05:57:40;;;;;;;24.05;21.75;;;16.90;85.70;;;;;;5036562;28;20041;-70
2021/08/05 06:00:06;;;;;;;24.92;22.58;;;17.40;84.80;;;;;;5024533;28;20041;-73
2021/08/05 06:02:32;;;;;;;24.90;22.50;;;18.10;83.10;;;;;;5023284;28;20029;-70
2021/08/05 06:04:58;;;;;;;23.75;21.45;;;18.20;82.20;;;;;;5029557;28;20115;-69
2021/08/05 06:07:24;;;;;;;23.98;21.77;;;18.20;82.00;;;;;;5025834;28;20799;-69
2021/08/05 06:09:49;;;;;;;26.25;23.70;;;18.10;82.30;;;;;;5024414;28;20428;-69
2021/08/05 06:12:15;;;;;;;28.05;25.45;;;18.10;82.00;;;;;;5021407;28;20109;-71
2021/08/05 06:14:41;;;;;;;29.83;26.83;;;18.10;82.20;;;;;;5025560;28;20128;-69
2021/08/05 06:17:07;;;;;;;28.25;25.58;;;17.90;81.80;;;;;;5019686;28;20034;-69
2021/08/05 06:19:33;;;;;;;30.63;27.67;;;17.80;83.30;;;;;;5026942;28;20581;-73
2021/08/05 06:21:58;;;;;;;28.73;26.00;;;17.60;83.80;;;;;;5006099;28;20026;-69
2021/08/05 06:24:25;;;;;;;31.90;28.58;;;17.80;84.30;;;;;;5006411;28;20544;-69
2021/08/05 06:26:51;;;;;;;29.73;26.73;;;17.90;83.50;;;;;;5006420;28;20050;-70
2021/08/05 06:29:18;;;;;;;30.92;27.83;;;18.00;83.60;;;;;;5011550;28;20440;-72
2021/08/05 06:31:44;;;;;;;30.90;27.85;;;18.10;81.90;;;;;;5024899;28;20033;-71
2021/08/05 06:34:10;;;;;;;33.50;30.10;;;18.30;82.40;;;;;;5004426;28;20425;-70
2021/08/05 06:36:36;;;;;;;36.03;32.22;;;18.40;82.20;;;;;;5001441;28;20042;-69
2021/08/05 06:39:05;;;;;;;35.65;31.92;;;18.60;81.60;;;;;;5001315;28;20034;-71
2021/08/05 06:41:32;;;;;;;36.05;32.15;;;18.70;80.80;;;;;;5007689;28;20042;-72
2021/08/05 06:43:57;;;;;;;38.40;34.40;;;18.80;79.90;;;;;;5004436;28;20045;-69
2021/08/05 06:46:26;;;;;;;36.83;33.13;;;18.90;78.80;;;;;;5003029;28;20422;-70
2021/08/05 06:48:52;;;;;;;37.80;33.72;;;19.10;78.50;;;;;;4994987;28;20087;-69
2021/08/05 06:51:18;;;;;;;35.38;31.65;;;19.20;77.60;;;;;;4997760;28;20027;-70
2021/08/05 06:53:43;;;;;;;36.67;32.83;;;19.30;78.10;;;;;;5001669;28;20400;-70
2021/08/05 06:56:09;;;;;;;36.15;32.35;;;19.50;77.20;;;;;;4998672;28;20046;-71
2021/08/05 06:58:35;;;;;;;36.78;32.92;;;19.60;76.90;;;;;;4999652;28;20064;-72
2021/08/05 07:01:01;;;;;;;37.40;33.55;;;19.70;76.10;;;;;;5006037;28;20441;-70
2021/08/05 07:03:27;;;;;;;36.25;32.63;;;19.90;77.40;;;;;;5014980;28;20037;-70
2021/08/05 07:05:52;;;;;;;34.88;31.27;;;19.90;77.00;;;;;;4998597;28;20043;-69
2021/08/05 07:08:18;;;;;;;37.65;33.55;;;20.10;75.90;;;;;;4996977;28;20026;-69
2021/08/05 07:10:44;;;;;;;36.38;32.30;;;20.10;76.30;;;;;;4992707;28;20130;-69
2021/08/05 07:13:10;;;;;;;33.53;30.02;;;20.20;76.70;;;;;;4999086;28;20520;-70
2021/08/05 07:15:35;;;;;;;34.58;30.88;;;20.50;77.70;;;;;;5017956;28;20065;-70
2021/08/05 07:18:01;;;;;;;30.02;26.85;;;20.50;76.00;;;;;;5017280;28;20084;-70
2021/08/05 07:20:28;;;;;;;31.15;27.90;;;20.70;74.80;;;;;;5025663;28;20201;-70
2021/08/05 07:22:54;;;;;;;30.98;27.77;;;21.00;74.60;;;;;;5022981;28;20025;-70
2021/08/05 07:25:19;;;;;;;28.02;25.15;;;21.10;74.90;;;;;;5019645;28;20065;-70
2021/08/05 07:27:47;;;;;;;29.85;26.60;;;21.10;74.20;;;;;;5023168;28;20064;-74
2021/08/05 07:30:14;;;;;;;30.60;27.50;;;21.10;74.00;;;;;;5025063;28;20415;-72
2021/08/05 07:32:40;;;;;;;26.95;24.05;;;21.10;72.90;;;;;;5019252;28;20496;-70
2021/08/05 07:35:07;;;;;;;31.50;26.42;;;21.30;73.00;;;;;;5024218;28;20046;-70
2021/08/05 07:37:33;;;;;;;26.23;23.63;;;21.60;71.30;;;;;;5027582;28;20036;-71
2021/08/05 07:39:59;;;;;;;26.10;23.50;;;21.80;72.20;;;;;;5019984;28;20017;-69
2021/08/05 07:42:24;;;;;;;26.15;23.25;;;21.90;69.50;;;;;;5019539;28;20112;-70
2021/08/05 07:44:50;;;;;;;26.80;24.00;;;22.00;69.90;;;;;;5015313;28;20164;-69
2021/08/05 07:47:16;;;;;;;28.80;25.90;;;22.10;70.50;;;;;;5021873;28;20448;-70
2021/08/05 07:49:42;;;;;;;28.70;25.67;;;22.10;71.70;;;;;;5020585;28;20456;-72
2021/08/05 07:52:10;;;;;;;25.42;22.90;;;22.00;70.20;;;;;;5016447;28;20496;-70
2021/08/05 07:54:35;;;;;;;26.40;23.67;;;21.90;71.20;;;;;;5022438;28;20034;-71
2021/08/05 07:57:01;;;;;;;24.05;21.58;;;21.80;70.80;;;;;;5019149;28;20575;-72
2021/08/05 07:59:27;;;;;;;23.67;20.55;;;21.80;70.40;;;;;;5025649;28;20045;-70
2021/08/05 08:01:53;;;;;;;19.77;16.85;;;22.00;68.30;;;;;;5022876;28;20438;-70
2021/08/05 08:04:19;;;;;;;17.05;15.25;;;22.10;68.00;;;;;;5021188;28;20037;-69
2021/08/05 08:06:44;;;;;;;19.83;16.23;;;22.50;66.50;;;;;;5027483;28;20025;-72
2021/08/05 08:09:10;;;;;;;18.15;15.93;;;22.60;67.40;;;;;;5023396;28;20484;-70
2021/08/05 08:11:36;;;;;;;18.83;16.83;;;22.70;65.70;;;;;;5025228;28;20532;-69
2021/08/05 08:14:01;;;;;;;19.52;17.42;;;22.80;65.70;;;;;;5021023;28;20030;-73
2021/08/05 08:16:27;;;;;;;15.77;13.15;;;22.80;66.80;;;;;;5019933;28;20405;-71
2021/08/05 08:18:53;;;;;;;16.63;13.52;;;23.00;64.00;;;;;;5020213;28;20030;-69
2021/08/05 08:21:19;;;;;;;17.80;15.02;;;23.00;63.10;;;;;;5027810;28;20111;-68
2021/08/05 08:23:46;;;;;;;16.02;13.52;;;23.10;62.80;;;;;;5020258;28;20107;-72
2021/08/05 08:26:12;;;;;;;19.00;16.40;;;23.10;63.00;;;;;;5013276;28;20065;-70
2021/08/05 08:28:38;;;;;;;16.50;14.45;;;23.10;63.20;;;;;;5001613;28;20128;-71
2021/08/05 08:31:04;;;;;;;17.63;15.73;;;23.10;65.80;;;;;;5000089;28;20041;-72
2021/08/05 08:33:29;;;;;;;17.77;15.88;;;23.20;65.50;;;;;;5000831;28;20124;-72
2021/08/05 08:36:03;;;;;;;19.83;14.90;;;23.40;64.40;;;;;;5003662;28;20237;-71
2021/08/05 08:38:28;;;;;;;19.20;13.20;;;23.60;64.90;;;;;;5001967;28;20375;-70
2021/08/05 08:40:56;;;;;;;14.40;11.98;;;23.60;63.00;;;;;;5012820;28;20040;-73
2021/08/05 08:43:22;;;;;;;14.65;11.95;;;23.50;61.20;;;;;;4998710;28;20042;-70
2021/08/05 08:45:51;;;;;;;12.63;11.10;;;23.70;61.20;;;;;;5009931;28;20053;-70
2021/08/05 08:48:18;;;;;;;13.82;12.32;;;23.70;61.70;;;;;;5013046;28;20057;-70
2021/08/05 08:50:45;;;;;;;13.23;11.45;;;23.80;61.00;;;;;;5002871;28;20117;-73
2021/08/05 08:53:15;;;;;;;11.07;8.68;;;23.70;59.60;;;;;;5006356;28;20049;-71
2021/08/05 08:55:43;;;;;;;11.63;9.38;;;23.50;60.40;;;;;;4998698;28;20049;-70
2021/08/05 08:58:10;;;;;;;11.38;8.95;;;23.60;62.10;;;;;;4994821;28;20038;-69
2021/08/05 09:00:37;;;;;;;13.68;9.52;;;23.80;60.90;;;;;;4993277;28;20464;-72
2021/08/05 09:03:04;;;;;;;11.02;9.02;;;23.80;59.50;;;;;;5011533;28;20092;-70
2021/08/05 09:05:30;;;;;;;10.65;8.52;;;23.90;60.00;;;;;;4998157;28;20041;-72
2021/08/05 09:07:58;;;;;;;13.02;8.50;;;24.30;60.40;;;;;;4998882;28;20037;-71
2021/08/05 09:10:24;;;;;;;11.32;7.97;;;24.40;57.70;;;;;;5002472;28;20065;-69
2021/08/05 09:12:54;;;;;;;15.27;8.48;;;24.20;58.50;;;;;;4999496;28;20047;-69
2021/08/05 09:15:41;;;;;;;11.57;8.98;;;23.90;58.20;;;;;;5005064;28;20552;-69
2021/08/05 09:18:35;;;;;;;9.63;7.82;;;23.60;58.40;;;;;;5003041;28;20096;-69
2021/08/05 09:21:18;;;;;;;11.85;9.50;;;23.70;59.40;;;;;;4995876;28;21495;-70
2021/08/05 09:23:53;;;;;;;11.80;8.88;;;23.70;60.40;;;;;;5002838;28;20046;-74
2021/08/05 09:26:26;;;;;;;11.00;8.27;;;23.50;62.40;;;;;;5014538;28;20040;-70
2021/08/05 09:29:05;;;;;;;11.88;8.80;;;23.50;62.30;;;;;;4998816;28;20393;-71
2021/08/05 09:31:32;;;;;;;11.52;8.88;;;23.50;62.50;;;;;;4996629;28;20039;-69
2021/08/05 09:34:08;;;;;;;9.80;7.97;;;23.60;61.70;;;;;;4993177;28;20041;-69
2021/08/05 09:36:35;;;;;;;12.02;7.80;;;23.50;61.70;;;;;;4996921;28;20065;-69
2021/08/05 09:39:23;;;;;;;11.35;7.47;;;23.50;59.80;;;;;;5002557;28;20440;-76
2021/08/05 09:42:02;;;;;;;11.63;9.05;;;23.50;61.40;;;;;;4999039;28;20556;-73
2021/08/05 09:44:41;;;;;;;12.25;7.43;;;23.50;61.20;;;;;;4995148;28;20461;-69
2021/08/05 09:47:18;;;;;;;11.15;8.07;;;23.60;59.80;;;;;;4995391;28;20042;-71
2021/08/05 09:49:46;;;;;;;11.07;7.63;;;23.60;59.30;;;;;;5002487;28;20084;-73
2021/08/05 09:52:14;;;;;;;12.05;7.82;;;23.90;59.90;;;;;;5000714;28;20129;-75
2021/08/05 09:54:44;;;;;;;11.05;7.60;;;24.10;57.40;;;;;;4996712;28;20034;-69
2021/08/05 09:57:20;;;;;;;10.60;8.02;;;24.20;57.30;;;;;;4999630;28;20045;-69
2021/08/05 10:00:05;;;;;;;10.45;8.20;;;24.50;56.00;;;;;;5002988;28;20034;-69
2021/08/05 10:02:45;;;;;;;13.88;8.40;;;24.80;55.70;;;;;;4994656;28;20087;-72
2021/08/05 10:05:16;;;;;;;11.80;7.82;;;25.20;56.00;;;;;;4999076;28;20046;-70
2021/08/05 10:07:48;;;;;;;10.43;6.80;;;25.40;54.20;;;;;;4999434;28;20486;-70
2021/08/05 10:10:16;;;;;;;10.43;6.30;;;25.30;57.20;;;;;;4998076;28;20689;-69
2021/08/05 10:12:52;;;;;;;9.18;6.53;;;25.60;52.80;;;;;;4994811;28;20027;-71
2021/08/05 10:15:19;;;;;;;8.68;6.13;;;25.70;53.30;;;;;;4997349;28;20129;-69
2021/08/05 10:17:49;;;;;;;9.77;7.22;;;25.90;52.60;;;;;;4997728;28;20500;-70
2021/08/05 10:20:14;;;;;;;11.35;7.30;;;25.90;52.30;;;;;;4996847;28;20038;-69
2021/08/05 10:22:41;;;;;;;10.75;6.70;;;26.00;52.50;;;;;;4995206;28;20482;-70
2021/08/05 10:25:13;;;;;;;10.70;6.75;;;26.20;51.90;;;;;;5002373;28;20053;-75
2021/08/05 10:27:39;;;;;;;11.68;6.88;;;25.80;51.60;;;;;;5017176;28;20067;-71
2021/08/05 10:30:10;;;;;;;11.35;7.28;;;25.20;53.70;;;;;;5005216;28;20040;-70
2021/08/05 10:32:36;;;;;;;11.07;6.60;;;24.90;54.80;;;;;;4994318;28;20034;-71
2021/08/05 10:35:02;;;;;;;11.52;7.13;;;24.70;55.70;;;;;;5005420;28;20068;-70
2021/08/05 10:37:28;;;;;;;11.43;6.63;;;24.70;56.50;;;;;;5005632;28;20080;-69
2021/08/05 10:39:56;;;;;;;9.57;6.70;;;24.80;57.10;;;;;;5004313;28;20034;-70
2021/08/05 10:42:22;;;;;;;11.57;7.30;;;25.00;55.80;;;;;;5003826;28;20114;-70
2021/08/05 10:44:49;;;;;;;10.30;6.40;;;25.40;55.70;;;;;;5009153;28;20085;-70
2021/08/05 10:47:24;;;;;;;10.93;6.85;;;25.80;53.10;;;;;;5001317;28;20424;-70
2021/08/05 10:49:53;;;;;;;9.50;6.63;;;26.20;53.80;;;;;;5002079;28;20065;-72
2021/08/05 10:52:41;;;;;;;10.60;6.40;;;26.10;53.90;;;;;;4998863;28;20046;-73
2021/08/05 10:55:16;;;;;;;7.88;5.43;;;26.40;51.30;;;;;;5005944;28;20500;-71
2021/08/05 10:57:45;;;;;;;8.52;6.15;;;26.70;51.70;;;;;;5005658;28;20044;-72
2021/08/05 11:00:16;;;;;;;8.75;5.90;;;26.70;49.80;;;;;;5005593;28;20095;-72
2021/08/05 11:02:55;;;;;;;8.95;5.60;;;26.40;49.90;;;;;;4997717;28;20185;-73
2021/08/05 11:05:23;;;;;;;8.65;5.78;;;25.70;51.60;;;;;;5004045;28;20057;-71
2021/08/05 11:07:53;;;;;;;7.85;5.22;;;25.50;52.20;;;;;;5005895;28;20038;-74
2021/08/05 11:10:24;;;;;;;8.65;4.90;;;25.90;52.60;;;;;;5000180;28;20065;-76
2021/08/05 11:12:56;;;;;;;6.70;4.80;;;26.30;49.90;;;;;;5000184;28;20064;-72
2021/08/05 11:15:22;;;;;;;9.55;5.20;;;26.40;52.20;;;;;;5004493;28;20065;-76
2021/08/05 11:18:15;;;;;;;8.85;5.15;;;26.70;50.70;;;;;;5023840;28;20037;-76
2021/08/05 11:20:51;;;;;;;9.30;5.00;;;26.80;48.70;;;;;;5024692;28;20075;-72
2021/08/05 11:23:30;;;;;;;8.15;4.70;;;26.50;49.50;;;;;;5021438;28;20038;-74
2021/08/05 11:25:56;;;;;;;9.82;4.97;;;26.30;48.30;;;;;;5025892;28;20046;-71
2021/08/05 11:28:23;;;;;;;9.77;4.57;;;26.10;49.10;;;;;;5023104;28;20478;-71
2021/08/05 11:30:59;;;;;;;8.68;4.20;;;26.10;48.50;;;;;;5021024;28;20620;-72
2021/08/05 11:33:36;;;;;;;6.80;4.07;;;25.80;51.00;;;;;;5021311;28;20827;-72
2021/08/05 11:36:21;;;;;;;5.85;3.72;;;26.10;48.70;;;;;;5018921;28;20042;-73
2021/08/05 11:39:05;;;;;;;6.45;3.50;;;26.40;47.60;;;;;;5010524;28;20118;-72
2021/08/05 11:41:47;;;;;;;6.57;3.30;;;26.90;48.60;;;;;;5017573;28;20400;-75
2021/08/05 11:44:20;;;;;;;5.07;2.60;;;27.00;42.70;;;;;;5020484;28;20472;-72
2021/08/05 11:46:48;;;;;;;6.90;4.53;;;26.70;47.20;;;;;;5019351;28;20068;-72
2021/08/05 11:49:37;;;;;;;6.80;4.07;;;26.50;46.80;;;;;;5019597;28;20037;-71
2021/08/05 11:52:15;;;;;;;6.25;4.13;;;25.70;47.80;;;;;;5026172;28;20140;-72
2021/08/05 11:54:47;;;;;;;7.82;4.75;;;25.70;50.20;;;;;;5023214;28;20030;-82
2021/08/05 11:57:17;;;;;;;7.30;4.60;;;25.90;48.30;;;;;;5010827;28;20046;-70
2021/08/05 11:59:50;;;;;;;7.78;4.95;;;26.00;48.20;;;;;;4996343;28;20042;-71
2021/08/05 12:02:20;;;;;;;6.70;4.63;;;25.80;49.00;;;;;;4998001;28;20034;-74
2021/08/05 12:04:48;;;;;;;7.50;4.30;;;25.80;49.70;;;;;;4995132;28;20165;-75
2021/08/05 12:07:31;;;;;;;6.80;3.60;;;25.80;50.50;;;;;;4999995;28;20121;-78
2021/08/05 12:10:04;;;;;;;6.75;3.80;;;25.90;49.70;;;;;;5000926;28;20041;-71
2021/08/05 12:12:39;;;;;;;7.88;4.20;;;25.80;49.50;;;;;;4995928;28;20445;-72
2021/08/05 12:15:06;;;;;;;7.55;4.63;;;26.10;49.90;;;;;;4995323;28;20053;-71
2021/08/05 12:17:33;;;;;;;11.00;4.47;;;26.50;48.50;;;;;;4999574;28;20394;-70
2021/08/05 12:20:00;;;;;;;8.27;4.68;;;26.80;47.30;;;;;;5002181;28;20125;-71
2021/08/05 12:22:46;;;;;;;6.63;4.22;;;27.10;47.20;;;;;;5001031;28;20537;-72
2021/08/05 12:25:30;;;;;;;7.68;4.57;;;27.40;46.50;;;;;;5001146;28;20038;-71
2021/08/05 12:28:02;;;;;;;7.32;3.90;;;27.40;46.30;;;;;;4999401;28;20026;-71
2021/08/05 12:30:34;;;;;;;6.10;3.72;;;27.50;44.50;;;;;;4996054;28;20392;-75
2021/08/05 12:33:03;;;;;;;7.00;3.88;;;27.70;44.30;;;;;;4991233;28;20046;-71
2021/08/05 12:35:28;;;;;;;7.53;4.18;;;27.50;45.80;;;;;;4996394;28;20050;-72
2021/08/05 12:38:12;;;;;;;6.32;4.05;;;27.80;44.60;;;;;;5001957;28;20035;-77